Time;durP1;ratioP1;P1;durP2;ratioP2;P2;SDS_P1;SDS_P2;PMS_P1;PMS_P2;Temp;Humidity;BMP_temperature;BMP_pressure;BME280_temperature;BME280_humidity;BME280_pressure;Samples;Min_cycle;Max_cycle;Signal;HPM_P1;HPM_P2
2023/05/19 00:00:56;;;;;;;14.55;6.47;;;7.30;99.90;;;;;;5133370;27;20524;-58
2023/05/19 00:03:23;;;;;;;18.50;6.75;;;7.30;99.90;;;;;;5133860;27;20144;-58
2023/05/19 00:05:52;;;;;;;14.02;6.30;;;7.10;99.90;;;;;;5133915;27;20095;-58
2023/05/19 00:08:19;;;;;;;20.05;6.68;;;9.40;99.90;;;;;;5134876;27;20537;-58
2023/05/19 00:10:45;;;;;;;13.60;7.95;;;7.30;99.90;;;;;;5133073;27;20515;-59
2023/05/19 00:13:11;;;;;;;28.00;7.45;;;7.30;99.90;;;;;;5133069;27;20597;-58
2023/05/19 00:15:37;;;;;;;16.02;6.78;;;7.10;99.90;;;;;;5135266;27;20034;-57
2023/05/19 00:18:03;;;;;;;17.95;6.70;;;7.20;99.90;;;;;;5134431;27;20056;-58
2023/05/19 00:20:29;;;;;;;18.88;7.10;;;7.00;99.90;;;;;;5132844;27;20031;-58
2023/05/19 00:22:55;;;;;;;20.73;7.38;;;7.00;99.90;;;;;;5133311;27;20224;-58
2023/05/19 00:25:20;;;;;;;17.08;6.75;;;7.50;99.90;;;;;;5134115;27;20038;-58
2023/05/19 00:27:46;;;;;;;14.32;7.20;;;7.00;99.90;;;;;;5116088;27;20043;-58
2023/05/19 00:30:12;;;;;;;17.33;7.13;;;9.00;99.90;;;;;;5134077;27;20369;-58
2023/05/19 00:32:38;;;;;;;17.05;7.10;;;7.10;99.90;;;;;;5134410;27;20522;-58
2023/05/19 00:35:04;;;;;;;16.45;6.82;;;7.20;99.90;;;;;;5132077;27;20043;-59
2023/05/19 00:37:30;;;;;;;16.92;7.03;;;7.20;99.90;;;;;;5132828;27;20050;-58
2023/05/19 00:39:57;;;;;;;15.27;7.32;;;7.00;99.90;;;;;;5132835;27;20039;-58
2023/05/19 00:42:23;;;;;;;22.40;7.18;;;7.80;99.90;;;;;;5132121;27;20055;-58
2023/05/19 00:44:48;;;;;;;22.00;7.82;;;9.10;99.90;;;;;;5135429;27;20039;-59
2023/05/19 00:47:15;;;;;;;17.88;6.13;;;6.90;99.90;;;;;;5134467;27;20078;-59
2023/05/19 00:49:41;;;;;;;23.17;7.32;;;8.60;99.90;;;;;;5132400;27;20053;-59
2023/05/19 00:52:06;;;;;;;12.55;5.90;;;8.30;99.90;;;;;;5132441;27;20035;-60
2023/05/19 00:54:33;;;;;;;17.02;6.15;;;7.10;99.90;;;;;;5133271;27;20039;-60
2023/05/19 00:56:59;;;;;;;10.55;5.20;;;8.30;99.90;;;;;;5116000;27;20428;-60
2023/05/19 00:59:25;;;;;;;11.38;4.72;;;8.50;99.90;;;;;;5131978;27;20070;-59
2023/05/19 01:01:52;;;;;;;17.42;6.32;;;7.10;99.90;;;;;;5114531;27;20123;-59
2023/05/19 01:04:19;;;;;;;20.33;6.57;;;7.20;99.90;;;;;;5131528;27;20130;-58
2023/05/19 01:06:53;;;;;;;15.07;6.90;;;6.90;99.90;;;;;;5113186;27;20035;-58
2023/05/19 01:09:22;;;;;;;19.42;6.90;;;6.80;99.90;;;;;;5132155;27;20448;-59
2023/05/19 01:11:52;;;;;;;16.75;6.85;;;7.50;99.90;;;;;;5132005;27;20316;-58
2023/05/19 01:14:19;;;;;;;17.90;6.60;;;8.60;99.90;;;;;;5132815;27;20142;-58
2023/05/19 01:17:04;;;;;;;18.55;6.70;;;6.70;99.90;;;;;;5133125;27;20071;-58
2023/05/19 01:19:48;;;;;;;17.30;6.97;;;6.60;99.90;;;;;;5132945;27;20520;-58
2023/05/19 01:22:35;;;;;;;15.18;6.03;;;7.90;99.90;;;;;;5131099;27;20061;-59
2023/05/19 01:25:07;;;;;;;22.13;7.43;;;6.70;99.90;;;;;;5131665;27;20134;-59
2023/05/19 01:28:23;;;;;;;13.73;6.45;;;6.40;99.90;;;;;;5131545;27;20043;-57
2023/05/19 01:30:54;;;;;;;16.65;6.28;;;6.70;99.90;;;;;;5130470;27;20050;-59
2023/05/19 01:33:22;;;;;;;18.08;6.05;;;6.50;99.90;;;;;;5133929;27;20058;-58
2023/05/19 01:35:49;;;;;;;16.65;6.22;;;6.70;99.90;;;;;;5131861;27;20486;-58
2023/05/19 01:38:17;;;;;;;14.38;6.30;;;7.30;99.90;;;;;;5132876;27;20046;-58
2023/05/19 01:40:44;;;;;;;22.63;7.20;;;8.80;99.90;;;;;;5113875;27;20039;-58
2023/05/19 01:43:14;;;;;;;16.58;6.43;;;6.50;99.90;;;;;;5133269;27;20035;-59
2023/05/19 01:45:40;;;;;;;12.35;5.28;;;6.50;99.90;;;;;;5134350;27;20110;-58
2023/05/19 01:48:06;;;;;;;9.30;4.38;;;6.60;99.90;;;;;;5114749;27;20061;-58
2023/05/19 01:50:33;;;;;;;10.15;4.25;;;8.10;99.90;;;;;;5132360;27;20042;-58
2023/05/19 01:52:59;;;;;;;13.13;4.30;;;6.40;99.90;;;;;;5133387;27;20147;-58
2023/05/19 01:55:26;;;;;;;16.15;5.45;;;8.00;99.90;;;;;;5131755;27;20749;-59
2023/05/19 01:58:33;;;;;;;13.07;4.80;;;7.00;99.90;;;;;;5133134;27;20041;-58
2023/05/19 02:01:04;;;;;;;16.48;4.43;;;6.20;99.90;;;;;;5121971;27;20051;-58
2023/05/19 02:03:52;;;;;;;11.50;4.30;;;6.10;99.90;;;;;;5131986;27;20086;-58
2023/05/19 02:06:28;;;;;;;15.25;5.22;;;6.00;99.90;;;;;;5131838;27;20276;-58
2023/05/19 02:09:02;;;;;;;21.13;5.95;;;6.10;99.90;;;;;;5130969;27;20053;-58
2023/05/19 02:11:36;;;;;;;21.95;5.63;;;6.30;99.90;;;;;;5131252;27;20046;-58
2023/05/19 02:14:25;;;;;;;24.30;5.30;;;6.20;99.90;;;;;;5133128;27;20471;-58
2023/05/19 02:16:52;;;;;;;17.27;6.00;;;6.40;99.90;;;;;;5133474;27;20446;-58
2023/05/19 02:19:28;;;;;;;16.27;5.65;;;6.60;99.90;;;;;;5130391;27;20078;-59
2023/05/19 02:21:54;;;;;;;10.02;3.80;;;6.30;99.90;;;;;;5131913;27;20142;-58
2023/05/19 02:24:21;;;;;;;16.48;4.65;;;8.50;99.90;;;;;;5130574;27;20065;-58
2023/05/19 02:26:51;;;;;;;11.55;4.32;;;6.00;99.90;;;;;;5130917;27;20046;-58
2023/05/19 02:29:16;;;;;;;19.83;6.70;;;6.10;99.90;;;;;;5132023;27;20343;-58
2023/05/19 02:31:42;;;;;;;13.85;4.93;;;6.10;99.90;;;;;;5095358;27;20049;-58
2023/05/19 02:34:08;;;;;;;10.30;4.22;;;7.40;99.90;;;;;;5135915;27;20050;-58
2023/05/19 02:36:35;;;;;;;14.68;4.85;;;7.80;99.90;;;;;;5135145;27;20046;-58
2023/05/19 02:39:02;;;;;;;8.63;3.72;;;6.20;99.90;;;;;;5134822;27;20039;-58
2023/05/19 02:41:29;;;;;;;10.35;4.13;;;5.90;99.90;;;;;;5135073;27;20045;-58
2023/05/19 02:43:55;;;;;;;9.95;3.88;;;5.90;99.90;;;;;;5134207;27;20043;-58
2023/05/19 02:46:20;;;;;;;12.20;3.83;;;6.00;99.90;;;;;;5137514;27;20038;-58
2023/05/19 02:48:46;;;;;;;10.38;4.18;;;6.00;99.90;;;;;;5134590;27;20035;-58
2023/05/19 02:51:12;;;;;;;13.57;4.25;;;6.40;99.90;;;;;;5133612;27;20043;-58
2023/05/19 02:53:38;;;;;;;15.82;4.57;;;6.00;99.90;;;;;;5133977;27;20148;-59
2023/05/19 02:56:03;;;;;;;13.73;4.63;;;5.90;99.90;;;;;;5135031;27;20488;-60
2023/05/19 02:58:29;;;;;;;14.68;4.15;;;5.90;99.90;;;;;;5134753;27;20039;-58
2023/05/19 03:00:55;;;;;;;12.02;4.53;;;5.80;99.90;;;;;;5133422;27;20384;-58
2023/05/19 03:03:21;;;;;;;13.02;3.53;;;5.80;99.90;;;;;;5135170;27;20400;-59
2023/05/19 03:05:47;;;;;;;8.48;3.38;;;5.70;99.90;;;;;;5134138;27;20504;-59
2023/05/19 03:08:13;;;;;;;10.75;4.25;;;5.80;99.90;;;;;;5135932;27;20628;-59
2023/05/19 03:10:39;;;;;;;8.05;3.30;;;5.70;99.90;;;;;;5134926;27;20513;-59
2023/05/19 03:13:05;;;;;;;11.57;4.22;;;5.90;99.90;;;;;;5134692;27;20089;-58
2023/05/19 03:15:31;;;;;;;11.85;4.18;;;5.80;99.90;;;;;;5117802;27;20113;-58
2023/05/19 03:17:57;;;;;;;15.30;3.72;;;5.70;99.90;;;;;;5135512;27;20068;-59
2023/05/19 03:20:23;;;;;;;7.95;2.88;;;5.80;99.90;;;;;;5117257;27;20039;-59
2023/05/19 03:22:49;;;;;;;13.50;4.35;;;5.70;99.90;;;;;;5134710;27;20042;-59
2023/05/19 03:25:15;;;;;;;13.13;4.85;;;6.70;99.90;;;;;;5135802;27;20045;-60
2023/05/19 03:27:41;;;;;;;12.07;3.33;;;5.80;99.90;;;;;;5134493;27;20129;-59
2023/05/19 03:30:08;;;;;;;9.13;2.90;;;5.80;99.90;;;;;;5135831;27;20342;-58
2023/05/19 03:32:36;;;;;;;14.40;4.88;;;5.80;99.90;;;;;;5134919;27;21058;-59
2023/05/19 03:35:04;;;;;;;26.92;5.72;;;6.70;99.90;;;;;;5115053;27;20147;-58
2023/05/19 03:37:30;;;;;;;21.15;5.97;;;6.10;99.90;;;;;;5134728;27;20039;-59
2023/05/19 03:39:56;;;;;;;27.67;7.03;;;6.00;99.90;;;;;;5133587;27;20030;-59
2023/05/19 03:42:22;;;;;;;23.70;6.35;;;6.40;99.90;;;;;;5115671;27;20465;-59
2023/05/19 03:44:47;;;;;;;24.33;6.47;;;6.40;99.90;;;;;;5133232;27;20043;-59
2023/05/19 03:47:13;;;;;;;26.38;7.15;;;6.40;99.90;;;;;;5115589;27;20057;-59
2023/05/19 03:49:39;;;;;;;20.00;6.68;;;6.40;99.90;;;;;;5114847;27;20042;-60
2023/05/19 03:52:05;;;;;;;29.02;6.90;;;6.40;99.90;;;;;;5134441;27;20043;-60
2023/05/19 03:54:31;;;;;;;22.83;6.78;;;6.50;99.90;;;;;;5133307;27;20042;-59
2023/05/19 03:56:56;;;;;;;23.05;6.55;;;6.50;99.90;;;;;;5133047;27;20038;-59
2023/05/19 03:59:23;;;;;;;32.00;7.68;;;6.60;99.90;;;;;;5132972;27;20105;-60
2023/05/19 04:01:49;;;;;;;30.33;6.43;;;7.30;99.90;;;;;;5133388;27;20494;-59
2023/05/19 04:04:15;;;;;;;27.13;6.85;;;6.70;99.90;;;;;;5114252;27;20043;-58
2023/05/19 04:06:40;;;;;;;21.05;6.72;;;6.80;99.90;;;;;;5132016;27;20555;-57
2023/05/19 04:09:13;;;;;;;28.05;6.95;;;6.80;99.90;;;;;;5133116;27;20066;-58
2023/05/19 04:11:40;;;;;;;22.02;6.82;;;6.60;99.90;;;;;;5132710;27;20430;-58
2023/05/19 04:14:06;;;;;;;22.17;5.72;;;8.70;99.90;;;;;;5133748;27;20062;-58
2023/05/19 04:16:32;;;;;;;24.05;6.55;;;6.60;99.90;;;;;;5103091;27;20076;-58
2023/05/19 04:18:58;;;;;;;23.02;7.28;;;6.90;99.90;;;;;;5134025;27;20134;-58
2023/05/19 04:21:24;;;;;;;14.65;5.50;;;7.00;99.90;;;;;;5133050;27;20046;-58
2023/05/19 04:23:50;;;;;;;24.48;7.30;;;6.80;99.90;;;;;;5133660;27;20518;-58
2023/05/19 04:26:16;;;;;;;20.35;6.88;;;6.80;99.90;;;;;;5132958;27;20072;-59
2023/05/19 04:28:43;;;;;;;19.33;7.43;;;7.30;99.90;;;;;;5134225;27;20521;-58
2023/05/19 04:31:13;;;;;;;23.52;7.15;;;7.00;99.90;;;;;;5134231;27;20055;-58
2023/05/19 04:33:39;;;;;;;24.38;7.13;;;7.10;99.90;;;;;;5134229;27;20630;-58
2023/05/19 04:36:10;;;;;;;19.95;6.85;;;7.30;99.90;;;;;;5133162;27;20047;-58
2023/05/19 04:38:39;;;;;;;19.35;6.82;;;7.30;99.90;;;;;;5134145;27;20121;-58
2023/05/19 04:41:09;;;;;;;16.77;7.55;;;7.40;99.90;;;;;;5131947;27;20058;-58
2023/05/19 04:43:35;;;;;;;23.30;7.53;;;7.40;99.90;;;;;;5133818;27;21383;-59
2023/05/19 04:46:04;;;;;;;15.63;6.07;;;9.70;99.90;;;;;;5135067;27;20038;-58
2023/05/19 04:48:32;;;;;;;20.05;7.45;;;8.70;99.90;;;;;;5135087;27;20121;-58
2023/05/19 04:51:00;;;;;;;20.88;7.20;;;7.60;99.90;;;;;;5132575;27;20038;-58
2023/05/19 04:53:30;;;;;;;20.85;6.30;;;7.70;99.90;;;;;;5132875;27;20130;-59
2023/05/19 04:55:57;;;;;;;20.88;6.80;;;7.90;99.90;;;;;;5132815;27;20403;-59
2023/05/19 04:58:26;;;;;;;20.90;7.00;;;7.90;99.90;;;;;;5131979;27;20084;-59
2023/05/19 05:00:54;;;;;;;24.00;9.15;;;7.90;99.90;;;;;;5132218;27;20054;-59
2023/05/19 05:03:21;;;;;;;19.52;7.28;;;8.60;99.90;;;;;;5113963;27;20055;-59
2023/05/19 05:05:47;;;;;;;19.75;7.82;;;8.40;99.90;;;;;;5113948;27;20038;-59
2023/05/19 05:08:15;;;;;;;16.52;7.72;;;8.50;99.90;;;;;;5131632;27;20054;-59
2023/05/19 05:10:41;;;;;;;18.38;6.80;;;8.50;99.90;;;;;;5132144;27;20137;-59
2023/05/19 05:13:07;;;;;;;16.55;7.63;;;9.80;99.90;;;;;;5113691;27;20054;-59
2023/05/19 05:15:34;;;;;;;17.58;5.85;;;8.90;99.90;;;;;;5133645;27;20099;-59
2023/05/19 05:18:00;;;;;;;20.65;7.03;;;8.90;99.90;;;;;;5132901;27;20503;-60
2023/05/19 05:20:26;;;;;;;17.42;7.15;;;9.00;99.90;;;;;;5130326;27;20157;-59
2023/05/19 05:22:52;;;;;;;13.55;6.55;;;9.10;99.90;;;;;;5131625;27;20107;-58
2023/05/19 05:25:18;;;;;;;13.80;6.25;;;9.40;99.90;;;;;;5132691;27;20031;-59
2023/05/19 05:27:44;;;;;;;24.35;7.22;;;9.60;99.90;;;;;;5131296;27;20468;-60
2023/05/19 05:30:10;;;;;;;21.52;7.45;;;9.50;99.90;;;;;;5133915;27;20471;-57
2023/05/19 05:32:36;;;;;;;13.82;6.30;;;9.70;99.90;;;;;;5130611;27;20507;-59
2023/05/19 05:35:02;;;;;;;18.88;6.18;;;9.80;99.90;;;;;;5131005;27;20047;-58
2023/05/19 05:37:29;;;;;;;17.63;6.25;;;9.80;99.90;;;;;;5132830;27;20046;-58
2023/05/19 05:39:55;;;;;;;13.10;5.57;;;10.00;99.90;;;;;;5132646;27;20031;-59
2023/05/19 05:42:21;;;;;;;15.82;6.03;;;10.10;99.90;;;;;;5132321;27;20038;-59
2023/05/19 05:44:47;;;;;;;17.88;5.55;;;10.10;99.90;;;;;;5132218;27;20046;-59
2023/05/19 05:47:14;;;;;;;13.73;5.10;;;10.20;99.90;;;;;;5134289;27;20780;-59
2023/05/19 05:49:40;;;;;;;16.00;5.50;;;10.30;99.90;;;;;;5132380;27;20042;-59
2023/05/19 05:52:08;;;;;;;12.82;5.47;;;10.30;99.90;;;;;;5132805;27;20514;-59
2023/05/19 05:54:34;;;;;;;16.40;5.38;;;10.40;99.90;;;;;;5132346;27;20035;-58
2023/05/19 05:57:01;;;;;;;14.38;5.47;;;10.60;99.90;;;;;;5130955;27;20297;-60
2023/05/19 05:59:27;;;;;;;14.80;4.70;;;10.60;99.90;;;;;;5131653;27;20455;-59
2023/05/19 06:01:53;;;;;;;12.15;4.70;;;10.90;99.90;;;;;;5130578;27;20047;-59
2023/05/19 06:04:19;;;;;;;12.82;4.85;;;11.00;99.90;;;;;;5130972;27;20111;-59
2023/05/19 06:06:45;;;;;;;15.77;5.00;;;10.60;99.90;;;;;;5113627;27;20588;-59
2023/05/19 06:09:11;;;;;;;11.40;4.28;;;11.20;99.90;;;;;;5118423;27;20204;-59
2023/05/19 06:11:37;;;;;;;16.25;4.95;;;11.50;99.90;;;;;;5135791;27;20053;-58
2023/05/19 06:14:03;;;;;;;18.67;4.88;;;11.60;99.90;;;;;;5135749;27;20456;-58
2023/05/19 06:16:29;;;;;;;11.57;4.13;;;11.70;99.90;;;;;;5137091;27;20104;-58
2023/05/19 06:18:55;;;;;;;13.93;3.97;;;11.80;99.90;;;;;;5137255;27;20038;-58
2023/05/19 06:21:21;;;;;;;13.63;3.88;;;12.10;99.90;;;;;;5133769;27;20035;-58
2023/05/19 06:23:47;;;;;;;10.65;3.13;;;12.20;99.90;;;;;;5135270;27;20412;-59
2023/05/19 06:26:14;;;;;;;14.68;5.20;;;12.90;99.90;;;;;;5117451;27;20043;-59
2023/05/19 06:28:39;;;;;;;11.07;3.42;;;13.00;99.90;;;;;;5136010;27;20042;-56
2023/05/19 06:31:05;;;;;;;13.18;3.72;;;12.90;99.90;;;;;;5116566;27;20039;-59
2023/05/19 06:33:31;;;;;;;12.43;3.58;;;13.10;99.90;;;;;;5134784;27;20149;-59
2023/05/19 06:35:57;;;;;;;11.27;3.17;;;13.40;99.90;;;;;;5134070;27;20621;-57
2023/05/19 06:38:22;;;;;;;9.02;3.13;;;13.90;99.90;;;;;;5118745;27;20446;-58
2023/05/19 06:40:48;;;;;;;9.60;3.35;;;13.80;99.90;;;;;;5134937;27;20039;-58
2023/05/19 06:43:14;;;;;;;12.18;3.97;;;14.00;99.90;;;;;;5134169;27;20153;-59
2023/05/19 06:45:40;;;;;;;11.30;3.33;;;14.00;99.90;;;;;;5136010;27;20046;-59
2023/05/19 06:48:05;;;;;;;12.43;3.42;;;14.20;99.90;;;;;;5135904;27;20057;-59
2023/05/19 06:50:31;;;;;;;9.50;2.90;;;14.40;99.90;;;;;;5133776;27;20050;-59
2023/05/19 06:52:57;;;;;;;14.02;3.10;;;14.90;99.90;;;;;;5134743;27;20098;-59
2023/05/19 06:55:23;;;;;;;13.15;3.63;;;16.10;99.90;;;;;;5115176;27;20142;-60
2023/05/19 06:57:49;;;;;;;11.80;3.05;;;16.90;99.90;;;;;;5115039;27;20100;-59
2023/05/19 07:00:15;;;;;;;9.85;3.08;;;17.80;99.90;;;;;;5134365;27;20057;-60
2023/05/19 07:02:41;;;;;;;10.98;3.17;;;19.00;99.90;;;;;;5136054;27;20062;-60
2023/05/19 07:05:08;;;;;;;12.60;3.08;;;19.80;99.90;;;;;;5115243;27;20050;-60
2023/05/19 07:07:33;;;;;;;8.02;2.95;;;20.30;99.90;;;;;;5135730;27;20051;-60
2023/05/19 07:09:59;;;;;;;12.07;2.80;;;20.90;99.90;;;;;;5133689;27;20135;-59
2023/05/19 07:12:25;;;;;;;9.25;2.75;;;21.60;99.90;;;;;;5135248;27;20114;-60
2023/05/19 07:14:51;;;;;;;8.90;2.67;;;22.30;99.90;;;;;;5135380;27;20051;-62
2023/05/19 07:17:17;;;;;;;10.93;2.90;;;22.20;99.90;;;;;;5137337;27;20049;-60
2023/05/19 07:19:43;;;;;;;7.57;2.60;;;22.00;99.90;;;;;;5132848;27;20700;-59
2023/05/19 07:22:09;;;;;;;9.02;2.58;;;22.30;99.90;;;;;;5134823;27;20046;-60
2023/05/19 07:24:34;;;;;;;9.05;2.65;;;22.80;99.90;;;;;;5117431;27;20053;-59
2023/05/19 07:27:00;;;;;;;8.70;2.63;;;22.90;99.90;;;;;;5134821;27;20074;-59
2023/05/19 07:29:26;;;;;;;6.63;2.42;;;23.00;99.90;;;;;;5116454;27;20042;-60
2023/05/19 07:31:56;;;;;;;11.18;2.35;;;22.60;99.90;;;;;;5116547;27;20038;-60
2023/05/19 07:34:22;;;;;;;8.23;2.33;;;23.20;99.90;;;;;;5133396;27;20667;-59
2023/05/19 07:36:48;;;;;;;6.63;2.10;;;23.30;99.90;;;;;;5117140;27;20034;-59
2023/05/19 07:39:14;;;;;;;9.57;2.60;;;23.40;99.90;;;;;;5134860;27;20038;-59
2023/05/19 07:41:40;;;;;;;10.80;3.15;;;23.80;99.90;;;;;;5134596;27;20061;-59
2023/05/19 07:44:06;;;;;;;7.15;2.30;;;23.30;99.90;;;;;;5133602;27;20974;-59
2023/05/19 07:46:36;;;;;;;8.10;2.35;;;23.60;99.90;;;;;;5115920;27;20039;-59
2023/05/19 07:49:02;;;;;;;8.75;2.40;;;23.10;99.90;;;;;;5133591;27;20169;-58
2023/05/19 07:51:28;;;;;;;8.77;2.38;;;22.70;99.90;;;;;;5134479;27;20050;-58
2023/05/19 07:53:54;;;;;;;7.22;2.13;;;22.60;99.90;;;;;;5133236;27;20042;-59
2023/05/19 07:56:20;;;;;;;10.32;2.95;;;22.00;99.90;;;;;;5133970;27;20132;-59
2023/05/19 07:58:46;;;;;;;10.20;2.45;;;22.10;99.90;;;;;;5133156;27;20031;-58
2023/05/19 08:01:12;;;;;;;9.95;2.10;;;21.50;99.90;;;;;;5133321;27;20042;-58
2023/05/19 08:03:37;;;;;;;8.82;2.80;;;21.20;99.90;;;;;;5132877;27;20039;-59
2023/05/19 08:06:03;;;;;;;8.30;2.28;;;20.80;99.90;;;;;;5133269;27;20030;-59
2023/05/19 08:08:29;;;;;;;6.80;2.20;;;20.40;99.90;;;;;;5131596;27;20056;-58
2023/05/19 08:10:55;;;;;;;11.15;3.10;;;20.40;99.90;;;;;;5132662;27;20573;-58
2023/05/19 08:13:21;;;;;;;9.75;2.53;;;20.20;99.90;;;;;;5113834;27;20577;-58
2023/05/19 08:15:46;;;;;;;9.77;2.35;;;18.70;99.90;;;;;;5115285;27;20746;-59
2023/05/19 08:18:12;;;;;;;10.73;3.10;;;19.90;99.90;;;;;;5134417;27;20038;-58
2023/05/19 08:20:38;;;;;;;12.75;3.00;;;19.70;99.90;;;;;;5133452;27;20030;-59
2023/05/19 08:23:04;;;;;;;8.25;2.40;;;19.30;99.90;;;;;;5132761;27;20065;-58
2023/05/19 08:25:30;;;;;;;7.78;2.22;;;19.20;99.90;;;;;;5132496;27;20082;-59
2023/05/19 08:27:55;;;;;;;7.63;3.03;;;19.00;99.90;;;;;;5132851;27;20046;-58
2023/05/19 08:30:22;;;;;;;8.23;2.40;;;18.70;99.90;;;;;;5132673;27;20245;-59
2023/05/19 08:32:47;;;;;;;8.70;2.63;;;19.30;99.90;;;;;;5133652;27;20038;-59
2023/05/19 08:35:13;;;;;;;8.10;2.25;;;19.50;99.90;;;;;;5113233;27;20530;-59
2023/05/19 08:37:39;;;;;;;7.70;2.40;;;19.70;99.90;;;;;;5132812;27;20135;-58
2023/05/19 08:40:07;;;;;;;7.72;2.58;;;20.00;99.90;;;;;;5133397;27;20154;-56
2023/05/19 08:42:33;;;;;;;10.82;2.47;;;19.80;99.90;;;;;;5132457;27;20237;-58
2023/05/19 08:45:01;;;;;;;7.28;2.40;;;19.30;99.90;;;;;;5131321;27;20569;-59
2023/05/19 08:47:28;;;;;;;8.43;3.00;;;18.40;99.90;;;;;;5133919;27;20042;-58
2023/05/19 08:50:09;;;;;;;10.80;2.75;;;18.00;99.90;;;;;;5132866;27;20057;-58
2023/05/19 08:52:39;;;;;;;9.88;2.10;;;17.60;99.90;;;;;;5134374;27;20035;-58
2023/05/19 08:55:20;;;;;;;7.07;2.50;;;17.60;99.90;;;;;;5133348;27;20043;-58
2023/05/19 08:57:48;;;;;;;8.90;2.85;;;17.60;99.90;;;;;;5132678;27;20047;-59
2023/05/19 09:00:15;;;;;;;13.90;3.13;;;17.20;99.90;;;;;;5134495;27;20123;-59
2023/05/19 09:02:41;;;;;;;8.93;2.70;;;17.20;99.90;;;;;;5133720;27;20038;-59
2023/05/19 09:05:08;;;;;;;9.45;3.15;;;17.40;99.90;;;;;;5132047;27;20229;-59
2023/05/19 09:07:36;;;;;;;10.32;2.88;;;17.70;99.90;;;;;;5132355;27;20534;-59
2023/05/19 09:10:03;;;;;;;10.35;2.60;;;17.90;99.90;;;;;;5131854;27;20166;-59
2023/05/19 09:12:29;;;;;;;7.75;2.60;;;18.00;99.90;;;;;;5133524;27;20042;-59
2023/05/19 09:14:55;;;;;;;6.15;2.55;;;17.90;99.90;;;;;;5132120;27;20062;-59
2023/05/19 09:17:22;;;;;;;10.38;2.85;;;17.80;99.90;;;;;;5133532;27;20058;-59
2023/05/19 09:19:48;;;;;;;13.05;3.10;;;17.70;99.90;;;;;;5113634;27;20616;-59
2023/05/19 09:22:15;;;;;;;12.30;3.42;;;17.60;99.90;;;;;;5132674;27;20043;-59
2023/05/19 09:24:41;;;;;;;7.60;2.63;;;17.10;99.90;;;;;;5131873;27;20506;-59
2023/05/19 09:27:07;;;;;;;7.43;2.67;;;17.00;99.90;;;;;;5113622;27;20670;-59
2023/05/19 09:29:33;;;;;;;8.18;3.13;;;17.10;99.90;;;;;;5113341;27;20030;-59
2023/05/19 09:32:03;;;;;;;10.70;3.25;;;16.90;99.90;;;;;;5114204;27;20121;-60
2023/05/19 09:34:29;;;;;;;8.60;2.72;;;16.90;99.90;;;;;;5132864;27;20058;-59
2023/05/19 09:36:56;;;;;;;11.50;2.90;;;16.90;99.90;;;;;;5112842;27;20099;-60
2023/05/19 09:39:23;;;;;;;9.35;2.40;;;17.00;99.90;;;;;;5131747;27;20049;-60
2023/05/19 09:41:54;;;;;;;11.50;2.83;;;17.00;99.90;;;;;;5131939;27;20444;-60
2023/05/19 09:44:22;;;;;;;12.90;3.27;;;16.70;99.90;;;;;;5136374;27;20482;-60
2023/05/19 09:46:52;;;;;;;10.50;3.20;;;16.80;99.90;;;;;;5136712;27;20494;-60
2023/05/19 09:49:22;;;;;;;6.65;2.63;;;16.70;99.90;;;;;;5136208;27;20654;-59
2023/05/19 09:51:55;;;;;;;12.60;3.38;;;16.80;99.90;;;;;;5136303;27;20039;-61
2023/05/19 09:54:27;;;;;;;9.00;2.75;;;17.00;99.90;;;;;;5136269;27;20284;-61
2023/05/19 09:56:59;;;;;;;10.95;3.03;;;17.00;99.90;;;;;;5134963;27;20547;-60
2023/05/19 09:59:26;;;;;;;9.23;2.90;;;17.10;99.90;;;;;;5117068;27;20041;-61
2023/05/19 10:01:57;;;;;;;10.43;2.92;;;17.20;99.90;;;;;;5135444;27;20309;-61
2023/05/19 10:04:28;;;;;;;9.60;3.20;;;17.10;99.90;;;;;;5135064;27;20050;-60
2023/05/19 10:06:58;;;;;;;8.23;2.78;;;17.40;99.90;;;;;;5135451;27;20042;-60
2023/05/19 10:09:28;;;;;;;12.35;3.00;;;17.70;99.90;;;;;;5136487;27;20175;-61
2023/05/19 10:11:56;;;;;;;9.00;2.83;;;17.90;99.90;;;;;;5135869;27;20085;-60
2023/05/19 10:14:26;;;;;;;9.30;2.78;;;15.90;99.90;;;;;;5136131;27;20121;-60
2023/05/19 10:16:57;;;;;;;10.15;2.63;;;17.80;99.90;;;;;;5135977;27;20521;-60
2023/05/19 10:19:25;;;;;;;9.20;3.40;;;17.70;99.90;;;;;;5137371;27;20042;-60
2023/05/19 10:21:52;;;;;;;9.10;2.80;;;17.70;99.90;;;;;;5136090;27;20444;-60
2023/05/19 10:24:18;;;;;;;11.27;2.85;;;17.90;99.90;;;;;;5136623;27;20038;-60
2023/05/19 10:27:02;;;;;;;9.18;2.78;;;18.00;99.90;;;;;;5135917;27;20045;-60
2023/05/19 10:29:35;;;;;;;9.48;2.53;;;18.00;99.90;;;;;;5118432;27;20047;-60
2023/05/19 10:32:06;;;;;;;8.35;2.58;;;18.20;99.90;;;;;;5134919;27;20047;-60
2023/05/19 10:35:04;;;;;;;10.13;2.80;;;18.30;99.90;;;;;;5117737;27;20030;-60
2023/05/19 10:38:09;;;;;;;10.60;3.42;;;18.30;99.90;;;;;;5135119;27;20258;-59
2023/05/19 10:41:08;;;;;;;8.88;2.20;;;18.10;99.90;;;;;;5136140;27;20043;-59
2023/05/19 10:43:54;;;;;;;11.10;2.78;;;18.00;99.90;;;;;;5134707;27;20047;-59
2023/05/19 10:46:25;;;;;;;10.38;2.75;;;18.10;99.90;;;;;;5119967;27;20153;-60
2023/05/19 10:48:51;;;;;;;10.43;2.20;;;18.20;99.90;;;;;;5136340;27;20556;-60
2023/05/19 10:51:17;;;;;;;8.48;2.13;;;18.20;99.90;;;;;;5135372;27;20172;-59
2023/05/19 10:53:46;;;;;;;7.68;2.15;;;18.30;99.90;;;;;;5116044;27;20096;-59
2023/05/19 10:56:32;;;;;;;10.68;2.42;;;18.40;99.90;;;;;;5133638;27;20455;-59
2023/05/19 10:58:59;;;;;;;7.35;2.05;;;18.60;99.90;;;;;;5133751;27;20054;-59
2023/05/19 11:01:37;;;;;;;9.45;2.47;;;18.60;99.90;;;;;;5135110;27;20656;-59
2023/05/19 11:04:12;;;;;;;8.15;2.70;;;18.50;99.90;;;;;;5133212;27;20035;-59
2023/05/19 11:06:39;;;;;;;8.10;2.53;;;18.90;99.90;;;;;;5134856;27;20458;-59
2023/05/19 11:09:14;;;;;;;11.80;2.58;;;19.10;99.90;;;;;;5133967;27;20418;-59
2023/05/19 11:11:51;;;;;;;5.97;2.20;;;19.20;99.90;;;;;;5135204;27;20050;-59
2023/05/19 11:14:26;;;;;;;7.40;3.05;;;19.20;99.90;;;;;;5096949;27;20099;-59
2023/05/19 11:16:55;;;;;;;8.95;2.30;;;19.20;99.90;;;;;;5135081;27;20347;-59
2023/05/19 11:19:33;;;;;;;7.68;2.25;;;18.90;99.90;;;;;;5134894;27;20047;-59
2023/05/19 11:22:10;;;;;;;7.72;2.45;;;19.20;99.90;;;;;;5134744;27;20086;-59
2023/05/19 11:24:51;;;;;;;8.23;2.60;;;19.00;99.90;;;;;;5133107;27;20099;-59
2023/05/19 11:27:27;;;;;;;7.20;2.58;;;19.10;99.90;;;;;;5134146;27;20042;-59
2023/05/19 11:29:58;;;;;;;9.43;2.65;;;19.10;99.90;;;;;;5114645;27;20039;-59
2023/05/19 11:32:29;;;;;;;6.40;1.95;;;19.00;99.90;;;;;;5134762;27;20586;-59
2023/05/19 11:34:56;;;;;;;10.52;2.22;;;19.30;99.90;;;;;;5133452;27;20061;-59
2023/05/19 11:37:22;;;;;;;7.45;2.22;;;19.10;99.90;;;;;;5134329;27;20058;-59
2023/05/19 11:39:48;;;;;;;11.07;1.98;;;18.90;99.90;;;;;;5134542;27;20408;-59
2023/05/19 11:42:15;;;;;;;7.10;1.92;;;18.90;99.90;;;;;;5132790;27;20114;-59
2023/05/19 11:44:43;;;;;;;9.55;2.35;;;19.10;99.90;;;;;;5134185;27;20177;-59
2023/05/19 11:47:09;;;;;;;5.70;1.80;;;19.10;99.90;;;;;;5116967;27;20058;-57
2023/05/19 11:49:35;;;;;;;9.30;2.85;;;19.20;99.90;;;;;;5136521;27;20047;-59
2023/05/19 11:52:02;;;;;;;6.35;1.95;;;19.10;99.90;;;;;;5133427;27;20594;-59
2023/05/19 11:54:33;;;;;;;9.45;2.53;;;19.10;99.90;;;;;;5134199;27;20031;-59
2023/05/19 11:57:01;;;;;;;7.85;2.33;;;19.00;99.90;;;;;;5133964;27;20069;-60
2023/05/19 11:59:32;;;;;;;9.80;2.45;;;19.00;99.90;;;;;;5135497;27;20050;-58
2023/05/19 12:02:19;;;;;;;6.20;1.70;;;18.90;99.90;;;;;;5135459;27;20046;-58
2023/05/19 12:04:48;;;;;;;6.88;1.90;;;18.80;99.30;;;;;;5133313;27;20050;-58
2023/05/19 12:07:18;;;;;;;9.20;2.13;;;18.50;99.90;;;;;;5135183;27;20163;-58
2023/05/19 12:09:46;;;;;;;9.73;2.60;;;18.40;99.90;;;;;;5133054;27;20047;-58
2023/05/19 12:12:19;;;;;;;6.53;2.30;;;18.30;99.90;;;;;;5134228;27;20042;-60
2023/05/19 12:14:46;;;;;;;8.88;2.53;;;18.20;99.90;;;;;;5133957;27;20127;-59
2023/05/19 12:17:14;;;;;;;8.38;2.53;;;18.50;99.90;;;;;;5133002;27;20126;-58
2023/05/19 12:19:42;;;;;;;8.75;2.13;;;18.60;99.90;;;;;;5132870;27;20401;-58
2023/05/19 12:22:09;;;;;;;7.75;2.13;;;18.80;99.90;;;;;;5114071;27;22293;-59
2023/05/19 12:24:36;;;;;;;4.38;1.80;;;18.70;99.90;;;;;;5134005;27;20042;-59
2023/05/19 12:27:15;;;;;;;10.18;2.78;;;18.90;99.90;;;;;;5132668;27;20190;-59
2023/05/19 12:29:41;;;;;;;7.72;2.22;;;18.80;99.90;;;;;;5132291;27;21975;-59
2023/05/19 12:32:08;;;;;;;8.73;2.72;;;18.80;99.90;;;;;;5133226;27;20051;-59
2023/05/19 12:34:37;;;;;;;8.07;2.70;;;18.80;99.90;;;;;;5132225;27;20057;-59
2023/05/19 12:37:04;;;;;;;7.82;2.83;;;19.00;99.90;;;;;;5113162;27;20049;-58
2023/05/19 12:39:31;;;;;;;5.97;2.40;;;18.60;99.90;;;;;;5133043;27;20062;-59
2023/05/19 12:42:25;;;;;;;9.23;2.40;;;18.80;99.90;;;;;;5132370;27;20371;-58
2023/05/19 12:44:51;;;;;;;10.77;2.65;;;18.70;99.90;;;;;;5129369;27;20054;-59
2023/05/19 12:47:21;;;;;;;9.60;2.30;;;18.60;99.90;;;;;;5131978;27;20038;-59
2023/05/19 12:50:00;;;;;;;9.15;3.03;;;18.60;99.90;;;;;;5133380;27;20133;-59
2023/05/19 12:52:28;;;;;;;7.20;2.17;;;18.80;99.90;;;;;;5130969;27;20034;-59